sensor_id;sensor_type;location;lat;lon;timestamp;P1;durP1;ratioP1;P2;durP2;ratioP2
25922;SDS011;13725;51.170;4.442;2023-07-31T00:01:00;23.17;;;5.50;;
25922;SDS011;13725;51.170;4.442;2023-07-31T00:03:25;22.63;;;6.22;;
25922;SDS011;13725;51.170;4.442;2023-07-31T00:05:51;25.30;;;6.65;;
25922;SDS011;13725;51.170;4.442;2023-07-31T00:08:17;23.65;;;6.68;;
25922;SDS011;13725;51.170;4.442;2023-07-31T00:10:42;28.23;;;6.43;;
25922;SDS011;13725;51.170;4.442;2023-07-31T00:13:08;22.85;;;5.80;;
25922;SDS011;13725;51.170;4.442;2023-07-31T00:15:34;17.95;;;5.45;;
25922;SDS011;13725;51.170;4.442;2023-07-31T00:17:59;22.15;;;5.93;;
25922;SDS011;13725;51.170;4.442;2023-07-31T00:20:26;19.13;;;5.82;;
25922;SDS011;13725;51.170;4.442;2023-07-31T00:22:53;26.05;;;5.75;;
25922;SDS011;13725;51.170;4.442;2023-07-31T00:25:18;18.45;;;5.13;;
25922;SDS011;13725;51.170;4.442;2023-07-31T00:27:44;21.35;;;6.28;;
25922;SDS011;13725;51.170;4.442;2023-07-31T00:30:11;17.63;;;5.03;;
25922;SDS011;13725;51.170;4.442;2023-07-31T00:32:37;19.85;;;5.85;;
25922;SDS011;13725;51.170;4.442;2023-07-31T00:35:03;25.17;;;7.55;;
25922;SDS011;13725;51.170;4.442;2023-07-31T00:37:30;19.92;;;6.05;;
25922;SDS011;13725;51.170;4.442;2023-07-31T00:39:55;22.63;;;5.80;;
25922;SDS011;13725;51.170;4.442;2023-07-31T00:42:21;26.23;;;7.22;;
25922;SDS011;13725;51.170;4.442;2023-07-31T00:44:47;22.88;;;6.60;;
25922;SDS011;13725;51.170;4.442;2023-07-31T00:47:14;20.95;;;6.95;;
25922;SDS011;13725;51.170;4.442;2023-07-31T00:49:40;23.33;;;5.93;;
25922;SDS011;13725;51.170;4.442;2023-07-31T00:52:06;27.40;;;6.55;;
25922;SDS011;13725;51.170;4.442;2023-07-31T00:54:32;23.80;;;5.82;;
25922;SDS011;13725;51.170;4.442;2023-07-31T00:56:59;30.15;;;6.35;;
25922;SDS011;13725;51.170;4.442;2023-07-31T00:59:25;20.85;;;6.68;;
25922;SDS011;13725;51.170;4.442;2023-07-31T01:01:50;14.50;;;5.28;;
25922;SDS011;13725;51.170;4.442;2023-07-31T01:04:17;26.25;;;6.78;;
25922;SDS011;13725;51.170;4.442;2023-07-31T01:12:16;22.27;;;6.43;;
25922;SDS011;13725;51.170;4.442;2023-07-31T01:14:51;19.02;;;6.25;;
25922;SDS011;13725;51.170;4.442;2023-07-31T01:17:26;17.73;;;5.28;;
25922;SDS011;13725;51.170;4.442;2023-07-31T01:19:53;18.90;;;6.55;;
25922;SDS011;13725;51.170;4.442;2023-07-31T01:22:30;19.27;;;6.32;;
25922;SDS011;13725;51.170;4.442;2023-07-31T01:28:05;17.85;;;5.65;;
25922;SDS011;13725;51.170;4.442;2023-07-31T01:30:37;24.40;;;6.05;;
25922;SDS011;13725;51.170;4.442;2023-07-31T01:33:08;23.97;;;5.83;;
25922;SDS011;13725;51.170;4.442;2023-07-31T01:35:35;21.88;;;6.53;;
25922;SDS011;13725;51.170;4.442;2023-07-31T01:38:01;19.52;;;5.65;;
25922;SDS011;13725;51.170;4.442;2023-07-31T01:40:27;22.63;;;6.00;;
25922;SDS011;13725;51.170;4.442;2023-07-31T01:42:53;18.75;;;6.32;;
25922;SDS011;13725;51.170;4.442;2023-07-31T01:45:19;19.02;;;6.20;;
25922;SDS011;13725;51.170;4.442;2023-07-31T01:47:45;20.30;;;6.13;;
25922;SDS011;13725;51.170;4.442;2023-07-31T01:50:11;15.23;;;5.32;;
25922;SDS011;13725;51.170;4.442;2023-07-31T01:52:37;23.52;;;6.00;;
25922;SDS011;13725;51.170;4.442;2023-07-31T01:55:02;23.67;;;6.13;;
25922;SDS011;13725;51.170;4.442;2023-07-31T01:57:28;25.10;;;5.32;;
25922;SDS011;13725;51.170;4.442;2023-07-31T01:59:54;19.85;;;5.72;;
25922;SDS011;13725;51.170;4.442;2023-07-31T02:02:20;21.15;;;6.72;;
25922;SDS011;13725;51.170;4.442;2023-07-31T02:04:48;20.08;;;5.70;;
25922;SDS011;13725;51.170;4.442;2023-07-31T02:07:14;20.20;;;5.72;;
25922;SDS011;13725;51.170;4.442;2023-07-31T02:09:40;25.65;;;6.65;;
25922;SDS011;13725;51.170;4.442;2023-07-31T02:12:05;21.58;;;6.05;;
25922;SDS011;13725;51.170;4.442;2023-07-31T02:14:33;19.35;;;5.75;;
25922;SDS011;13725;51.170;4.442;2023-07-31T02:17:00;26.38;;;6.80;;
25922;SDS011;13725;51.170;4.442;2023-07-31T02:19:26;26.90;;;6.90;;
25922;SDS011;13725;51.170;4.442;2023-07-31T02:21:51;19.83;;;5.85;;
25922;SDS011;13725;51.170;4.442;2023-07-31T02:24:17;26.08;;;6.85;;
25922;SDS011;13725;51.170;4.442;2023-07-31T02:26:43;25.10;;;5.72;;
25922;SDS011;13725;51.170;4.442;2023-07-31T02:29:08;22.23;;;5.30;;
25922;SDS011;13725;51.170;4.442;2023-07-31T02:31:34;21.27;;;6.38;;
25922;SDS011;13725;51.170;4.442;2023-07-31T02:34:00;17.13;;;6.38;;
25922;SDS011;13725;51.170;4.442;2023-07-31T02:36:26;20.25;;;5.50;;
25922;SDS011;13725;51.170;4.442;2023-07-31T02:38:51;22.65;;;5.20;;
25922;SDS011;13725;51.170;4.442;2023-07-31T02:41:17;16.30;;;5.57;;
25922;SDS011;13725;51.170;4.442;2023-07-31T02:43:43;13.82;;;4.55;;
25922;SDS011;13725;51.170;4.442;2023-07-31T02:46:08;18.67;;;5.18;;
25922;SDS011;13725;51.170;4.442;2023-07-31T02:48:34;16.40;;;4.85;;
25922;SDS011;13725;51.170;4.442;2023-07-31T02:51:00;16.20;;;4.88;;
25922;SDS011;13725;51.170;4.442;2023-07-31T02:53:26;21.55;;;5.82;;
25922;SDS011;13725;51.170;4.442;2023-07-31T02:55:52;19.10;;;5.75;;
25922;SDS011;13725;51.170;4.442;2023-07-31T02:58:17;19.80;;;5.03;;
25922;SDS011;13725;51.170;4.442;2023-07-31T03:00:43;22.88;;;4.78;;
25922;SDS011;13725;51.170;4.442;2023-07-31T03:03:10;19.88;;;5.97;;
25922;SDS011;13725;51.170;4.442;2023-07-31T03:05:36;18.38;;;4.93;;
25922;SDS011;13725;51.170;4.442;2023-07-31T03:08:03;20.23;;;6.00;;
25922;SDS011;13725;51.170;4.442;2023-07-31T03:10:29;23.08;;;5.15;;
25922;SDS011;13725;51.170;4.442;2023-07-31T03:12:55;17.17;;;5.30;;
25922;SDS011;13725;51.170;4.442;2023-07-31T03:15:20;16.85;;;5.53;;
25922;SDS011;13725;51.170;4.442;2023-07-31T03:17:46;26.90;;;5.80;;
25922;SDS011;13725;51.170;4.442;2023-07-31T03:20:12;16.63;;;5.18;;
25922;SDS011;13725;51.170;4.442;2023-07-31T03:22:38;19.20;;;5.50;;
25922;SDS011;13725;51.170;4.442;2023-07-31T03:25:03;18.25;;;5.32;;
25922;SDS011;13725;51.170;4.442;2023-07-31T03:27:30;19.48;;;5.22;;
25922;SDS011;13725;51.170;4.442;2023-07-31T03:29:56;21.42;;;5.60;;
25922;SDS011;13725;51.170;4.442;2023-07-31T03:32:22;20.77;;;5.97;;
25922;SDS011;13725;51.170;4.442;2023-07-31T03:34:49;15.13;;;5.07;;
25922;SDS011;13725;51.170;4.442;2023-07-31T03:37:14;13.68;;;5.05;;
25922;SDS011;13725;51.170;4.442;2023-07-31T03:39:40;19.80;;;5.75;;
25922;SDS011;13725;51.170;4.442;2023-07-31T03:42:06;17.92;;;5.35;;
25922;SDS011;13725;51.170;4.442;2023-07-31T03:44:32;19.98;;;5.80;;
25922;SDS011;13725;51.170;4.442;2023-07-31T03:46:57;14.80;;;5.05;;
25922;SDS011;13725;51.170;4.442;2023-07-31T03:49:23;14.05;;;5.03;;
25922;SDS011;13725;51.170;4.442;2023-07-31T03:51:49;16.65;;;4.97;;
25922;SDS011;13725;51.170;4.442;2023-07-31T03:54:15;19.23;;;6.70;;
25922;SDS011;13725;51.170;4.442;2023-07-31T03:56:41;22.27;;;5.45;;
25922;SDS011;13725;51.170;4.442;2023-07-31T03:59:07;17.10;;;5.28;;
25922;SDS011;13725;51.170;4.442;2023-07-31T04:01:32;17.63;;;5.70;;
25922;SDS011;13725;51.170;4.442;2023-07-31T04:03:58;16.90;;;6.10;;
25922;SDS011;13725;51.170;4.442;2023-07-31T04:06:24;16.33;;;5.95;;
25922;SDS011;13725;51.170;4.442;2023-07-31T04:08:50;17.20;;;6.03;;
25922;SDS011;13725;51.170;4.442;2023-07-31T04:11:15;20.85;;;6.22;;
25922;SDS011;13725;51.170;4.442;2023-07-31T04:13:41;16.85;;;5.68;;
25922;SDS011;13725;51.170;4.442;2023-07-31T04:16:07;18.98;;;6.85;;
25922;SDS011;13725;51.170;4.442;2023-07-31T04:18:33;18.20;;;6.75;;
25922;SDS011;13725;51.170;4.442;2023-07-31T04:20:59;18.10;;;5.97;;
25922;SDS011;13725;51.170;4.442;2023-07-31T04:23:26;19.55;;;6.22;;
25922;SDS011;13725;51.170;4.442;2023-07-31T04:25:52;17.42;;;5.85;;
25922;SDS011;13725;51.170;4.442;2023-07-31T04:28:17;16.15;;;6.57;;
25922;SDS011;13725;51.170;4.442;2023-07-31T04:30:43;17.85;;;6.70;;
25922;SDS011;13725;51.170;4.442;2023-07-31T04:33:09;21.65;;;6.40;;
25922;SDS011;13725;51.170;4.442;2023-07-31T04:35:35;14.75;;;6.20;;
25922;SDS011;13725;51.170;4.442;2023-07-31T04:38:01;19.25;;;6.45;;
25922;SDS011;13725;51.170;4.442;2023-07-31T04:40:26;15.70;;;5.65;;
25922;SDS011;13725;51.170;4.442;2023-07-31T04:42:52;20.70;;;6.93;;
25922;SDS011;13725;51.170;4.442;2023-07-31T04:45:18;22.73;;;6.60;;
25922;SDS011;13725;51.170;4.442;2023-07-31T04:47:45;16.52;;;6.18;;
25922;SDS011;13725;51.170;4.442;2023-07-31T04:50:10;16.35;;;6.78;;
25922;SDS011;13725;51.170;4.442;2023-07-31T04:52:36;18.85;;;6.03;;
25922;SDS011;13725;51.170;4.442;2023-07-31T04:55:02;12.68;;;5.80;;
25922;SDS011;13725;51.170;4.442;2023-07-31T04:57:28;14.05;;;6.75;;
25922;SDS011;13725;51.170;4.442;2023-07-31T04:59:54;19.23;;;6.53;;
25922;SDS011;13725;51.170;4.442;2023-07-31T05:02:19;15.52;;;6.40;;
25922;SDS011;13725;51.170;4.442;2023-07-31T05:04:45;17.80;;;6.18;;
25922;SDS011;13725;51.170;4.442;2023-07-31T05:07:11;12.95;;;5.93;;
25922;SDS011;13725;51.170;4.442;2023-07-31T05:09:37;13.57;;;5.78;;
25922;SDS011;13725;51.170;4.442;2023-07-31T05:12:04;15.40;;;6.00;;
25922;SDS011;13725;51.170;4.442;2023-07-31T05:14:31;12.80;;;6.07;;
25922;SDS011;13725;51.170;4.442;2023-07-31T05:16:56;12.63;;;6.20;;
25922;SDS011;13725;51.170;4.442;2023-07-31T05:19:22;12.35;;;5.78;;
25922;SDS011;13725;51.170;4.442;2023-07-31T05:21:48;16.65;;;6.72;;
25922;SDS011;13725;51.170;4.442;2023-07-31T05:24:14;13.80;;;6.00;;
25922;SDS011;13725;51.170;4.442;2023-07-31T05:26:39;15.48;;;6.60;;
25922;SDS011;13725;51.170;4.442;2023-07-31T05:29:05;16.45;;;6.85;;
25922;SDS011;13725;51.170;4.442;2023-07-31T05:31:31;15.13;;;7.20;;
25922;SDS011;13725;51.170;4.442;2023-07-31T05:33:57;20.60;;;7.35;;
25922;SDS011;13725;51.170;4.442;2023-07-31T05:36:23;12.90;;;6.20;;
25922;SDS011;13725;51.170;4.442;2023-07-31T05:38:49;20.33;;;6.93;;
25922;SDS011;13725;51.170;4.442;2023-07-31T05:41:15;14.93;;;6.85;;
25922;SDS011;13725;51.170;4.442;2023-07-31T05:43:41;15.95;;;6.85;;
25922;SDS011;13725;51.170;4.442;2023-07-31T05:46:08;12.85;;;6.82;;
25922;SDS011;13725;51.170;4.442;2023-07-31T05:48:34;15.00;;;6.50;;
25922;SDS011;13725;51.170;4.442;2023-07-31T05:51:00;13.85;;;7.13;;
25922;SDS011;13725;51.170;4.442;2023-07-31T05:53:26;9.98;;;6.45;;
25922;SDS011;13725;51.170;4.442;2023-07-31T05:55:51;12.35;;;6.53;;
25922;SDS011;13725;51.170;4.442;2023-07-31T05:58:17;12.40;;;6.63;;
25922;SDS011;13725;51.170;4.442;2023-07-31T06:00:43;17.38;;;6.97;;
25922;SDS011;13725;51.170;4.442;2023-07-31T06:03:09;15.77;;;7.70;;
25922;SDS011;13725;51.170;4.442;2023-07-31T06:05:35;13.27;;;7.30;;
25922;SDS011;13725;51.170;4.442;2023-07-31T06:08:01;14.13;;;6.75;;
25922;SDS011;13725;51.170;4.442;2023-07-31T06:10:27;15.00;;;7.10;;
25922;SDS011;13725;51.170;4.442;2023-07-31T06:12:53;13.68;;;6.75;;
25922;SDS011;13725;51.170;4.442;2023-07-31T06:15:19;14.00;;;6.72;;
25922;SDS011;13725;51.170;4.442;2023-07-31T06:17:45;14.88;;;7.15;;
25922;SDS011;13725;51.170;4.442;2023-07-31T06:20:11;15.75;;;8.23;;
25922;SDS011;13725;51.170;4.442;2023-07-31T06:22:37;15.00;;;7.50;;
25922;SDS011;13725;51.170;4.442;2023-07-31T06:25:03;15.38;;;6.97;;
25922;SDS011;13725;51.170;4.442;2023-07-31T06:27:29;12.45;;;6.68;;
25922;SDS011;13725;51.170;4.442;2023-07-31T06:29:55;13.63;;;7.20;;
25922;SDS011;13725;51.170;4.442;2023-07-31T06:32:21;23.60;;;7.45;;
25922;SDS011;13725;51.170;4.442;2023-07-31T06:34:46;13.13;;;7.13;;
25922;SDS011;13725;51.170;4.442;2023-07-31T06:37:12;19.50;;;7.50;;
25922;SDS011;13725;51.170;4.442;2023-07-31T06:39:38;18.92;;;7.38;;
25922;SDS011;13725;51.170;4.442;2023-07-31T06:42:04;13.48;;;6.80;;
25922;SDS011;13725;51.170;4.442;2023-07-31T06:44:30;16.65;;;6.63;;
25922;SDS011;13725;51.170;4.442;2023-07-31T06:46:56;17.15;;;6.35;;
25922;SDS011;13725;51.170;4.442;2023-07-31T06:49:21;14.07;;;6.50;;
25922;SDS011;13725;51.170;4.442;2023-07-31T06:51:47;14.07;;;6.28;;
25922;SDS011;13725;51.170;4.442;2023-07-31T06:54:13;16.13;;;6.18;;
25922;SDS011;13725;51.170;4.442;2023-07-31T06:56:38;13.07;;;5.82;;
25922;SDS011;13725;51.170;4.442;2023-07-31T06:59:04;14.35;;;6.95;;
25922;SDS011;13725;51.170;4.442;2023-07-31T07:01:30;13.98;;;6.35;;
25922;SDS011;13725;51.170;4.442;2023-07-31T07:03:56;12.27;;;6.65;;
25922;SDS011;13725;51.170;4.442;2023-07-31T07:06:22;18.38;;;6.25;;
25922;SDS011;13725;51.170;4.442;2023-07-31T07:08:48;14.27;;;6.05;;
25922;SDS011;13725;51.170;4.442;2023-07-31T07:11:14;12.98;;;6.28;;
25922;SDS011;13725;51.170;4.442;2023-07-31T07:13:41;15.27;;;6.55;;
25922;SDS011;13725;51.170;4.442;2023-07-31T07:16:12;11.27;;;5.47;;
25922;SDS011;13725;51.170;4.442;2023-07-31T07:18:39;13.90;;;5.03;;
25922;SDS011;13725;51.170;4.442;2023-07-31T07:21:04;17.27;;;6.20;;
25922;SDS011;13725;51.170;4.442;2023-07-31T07:23:30;17.73;;;6.35;;
25922;SDS011;13725;51.170;4.442;2023-07-31T07:25:56;15.48;;;6.55;;
25922;SDS011;13725;51.170;4.442;2023-07-31T07:28:22;12.05;;;5.30;;
25922;SDS011;13725;51.170;4.442;2023-07-31T07:30:54;12.45;;;5.75;;
25922;SDS011;13725;51.170;4.442;2023-07-31T07:33:20;13.63;;;5.38;;
25922;SDS011;13725;51.170;4.442;2023-07-31T07:35:47;12.60;;;6.03;;
25922;SDS011;13725;51.170;4.442;2023-07-31T07:38:13;21.33;;;5.78;;
25922;SDS011;13725;51.170;4.442;2023-07-31T07:40:40;10.02;;;4.85;;
25922;SDS011;13725;51.170;4.442;2023-07-31T07:43:06;10.55;;;5.28;;
25922;SDS011;13725;51.170;4.442;2023-07-31T07:45:33;9.27;;;5.32;;
25922;SDS011;13725;51.170;4.442;2023-07-31T07:47:58;14.95;;;5.10;;
25922;SDS011;13725;51.170;4.442;2023-07-31T07:50:24;12.60;;;4.97;;
25922;SDS011;13725;51.170;4.442;2023-07-31T07:52:50;15.10;;;5.35;;
25922;SDS011;13725;51.170;4.442;2023-07-31T07:55:16;11.35;;;5.10;;
25922;SDS011;13725;51.170;4.442;2023-07-31T07:57:42;12.90;;;5.20;;
25922;SDS011;13725;51.170;4.442;2023-07-31T08:00:09;11.20;;;5.25;;
25922;SDS011;13725;51.170;4.442;2023-07-31T08:02:41;11.13;;;4.85;;
25922;SDS011;13725;51.170;4.442;2023-07-31T08:05:07;9.05;;;4.85;;
25922;SDS011;13725;51.170;4.442;2023-07-31T08:07:33;13.40;;;5.35;;
25922;SDS011;13725;51.170;4.442;2023-07-31T08:09:59;11.38;;;4.35;;
25922;SDS011;13725;51.170;4.442;2023-07-31T08:12:25;10.38;;;3.97;;
25922;SDS011;13725;51.170;4.442;2023-07-31T08:14:51;12.90;;;4.43;;
25922;SDS011;13725;51.170;4.442;2023-07-31T08:17:17;11.38;;;3.78;;
25922;SDS011;13725;51.170;4.442;2023-07-31T08:19:42;7.00;;;4.00;;
25922;SDS011;13725;51.170;4.442;2023-07-31T08:22:09;11.90;;;4.25;;
25922;SDS011;13725;51.170;4.442;2023-07-31T08:24:35;9.77;;;4.15;;
25922;SDS011;13725;51.170;4.442;2023-07-31T08:27:00;7.05;;;4.15;;
25922;SDS011;13725;51.170;4.442;2023-07-31T08:29:26;9.43;;;4.20;;
25922;SDS011;13725;51.170;4.442;2023-07-31T08:31:52;11.63;;;4.05;;
25922;SDS011;13725;51.170;4.442;2023-07-31T08:34:17;8.45;;;3.90;;
25922;SDS011;13725;51.170;4.442;2023-07-31T08:36:43;6.13;;;3.88;;
25922;SDS011;13725;51.170;4.442;2023-07-31T08:39:09;10.35;;;3.70;;
25922;SDS011;13725;51.170;4.442;2023-07-31T08:41:38;8.20;;;4.13;;
25922;SDS011;13725;51.170;4.442;2023-07-31T08:44:04;12.45;;;4.10;;
25922;SDS011;13725;51.170;4.442;2023-07-31T08:46:32;10.02;;;3.83;;
25922;SDS011;13725;51.170;4.442;2023-07-31T08:48:58;9.07;;;3.53;;
25922;SDS011;13725;51.170;4.442;2023-07-31T08:51:25;9.40;;;4.00;;
25922;SDS011;13725;51.170;4.442;2023-07-31T08:53:52;7.20;;;3.47;;
25922;SDS011;13725;51.170;4.442;2023-07-31T08:56:18;6.32;;;3.58;;
25922;SDS011;13725;51.170;4.442;2023-07-31T08:58:45;9.35;;;3.63;;
25922;SDS011;13725;51.170;4.442;2023-07-31T09:01:14;7.90;;;3.67;;
25922;SDS011;13725;51.170;4.442;2023-07-31T09:03:40;8.60;;;3.60;;
25922;SDS011;13725;51.170;4.442;2023-07-31T09:06:08;9.00;;;3.88;;
25922;SDS011;13725;51.170;4.442;2023-07-31T09:08:35;7.20;;;3.35;;
25922;SDS011;13725;51.170;4.442;2023-07-31T09:11:06;7.72;;;3.30;;
25922;SDS011;13725;51.170;4.442;2023-07-31T09:13:32;10.93;;;3.20;;
25922;SDS011;13725;51.170;4.442;2023-07-31T09:15:58;7.22;;;2.90;;
25922;SDS011;13725;51.170;4.442;2023-07-31T09:18:24;9.00;;;3.15;;
25922;SDS011;13725;51.170;4.442;2023-07-31T09:21:00;7.07;;;3.00;;
25922;SDS011;13725;51.170;4.442;2023-07-31T09:26:09;6.25;;;3.05;;
25922;SDS011;13725;51.170;4.442;2023-07-31T09:28:35;5.20;;;2.80;;
25922;SDS011;13725;51.170;4.442;2023-07-31T09:31:01;4.78;;;2.63;;
25922;SDS011;13725;51.170;4.442;2023-07-31T09:33:27;9.88;;;3.00;;
25922;SDS011;13725;51.170;4.442;2023-07-31T09:35:52;8.88;;;3.30;;
25922;SDS011;13725;51.170;4.442;2023-07-31T09:38:18;5.90;;;3.05;;
25922;SDS011;13725;51.170;4.442;2023-07-31T09:40:47;6.60;;;2.90;;
25922;SDS011;13725;51.170;4.442;2023-07-31T09:43:17;8.85;;;2.95;;
25922;SDS011;13725;51.170;4.442;2023-07-31T09:45:45;6.00;;;2.80;;
25922;SDS011;13725;51.170;4.442;2023-07-31T09:48:12;6.45;;;3.35;;
25922;SDS011;13725;51.170;4.442;2023-07-31T09:50:42;9.52;;;3.55;;
25922;SDS011;13725;51.170;4.442;2023-07-31T09:53:12;7.40;;;3.50;;
25922;SDS011;13725;51.170;4.442;2023-07-31T09:55:40;11.40;;;2.92;;
25922;SDS011;13725;51.170;4.442;2023-07-31T09:58:08;5.50;;;3.28;;
25922;SDS011;13725;51.170;4.442;2023-07-31T10:00:35;7.80;;;3.58;;
25922;SDS011;13725;51.170;4.442;2023-07-31T10:03:02;7.10;;;3.15;;
25922;SDS011;13725;51.170;4.442;2023-07-31T10:05:31;7.55;;;3.60;;
25922;SDS011;13725;51.170;4.442;2023-07-31T10:08:00;9.80;;;3.78;;
25922;SDS011;13725;51.170;4.442;2023-07-31T10:10:26;10.10;;;3.63;;
25922;SDS011;13725;51.170;4.442;2023-07-31T10:12:53;9.23;;;3.88;;
25922;SDS011;13725;51.170;4.442;2023-07-31T10:15:19;9.00;;;3.67;;
25922;SDS011;13725;51.170;4.442;2023-07-31T10:17:49;6.90;;;3.92;;
25922;SDS011;13725;51.170;4.442;2023-07-31T10:20:15;11.13;;;4.47;;
25922;SDS011;13725;51.170;4.442;2023-07-31T10:22:42;12.50;;;3.70;;
25922;SDS011;13725;51.170;4.442;2023-07-31T10:25:10;8.95;;;3.30;;
25922;SDS011;13725;51.170;4.442;2023-07-31T10:27:36;5.15;;;3.13;;
25922;SDS011;13725;51.170;4.442;2023-07-31T10:30:04;5.22;;;2.92;;
25922;SDS011;13725;51.170;4.442;2023-07-31T10:32:32;4.32;;;3.15;;
25922;SDS011;13725;51.170;4.442;2023-07-31T10:35:00;6.80;;;2.72;;
25922;SDS011;13725;51.170;4.442;2023-07-31T10:37:28;4.40;;;2.75;;
25922;SDS011;13725;51.170;4.442;2023-07-31T10:42:27;6.78;;;3.53;;
25922;SDS011;13725;51.170;4.442;2023-07-31T10:45:00;6.63;;;3.13;;
25922;SDS011;13725;51.170;4.442;2023-07-31T10:47:28;5.57;;;3.40;;
25922;SDS011;13725;51.170;4.442;2023-07-31T10:50:28;6.25;;;3.30;;
25922;SDS011;13725;51.170;4.442;2023-07-31T10:55:39;7.78;;;3.67;;
25922;SDS011;13725;51.170;4.442;2023-07-31T10:58:06;8.98;;;4.22;;
25922;SDS011;13725;51.170;4.442;2023-07-31T11:00:34;7.75;;;4.32;;
25922;SDS011;13725;51.170;4.442;2023-07-31T11:03:04;9.65;;;4.45;;
25922;SDS011;13725;51.170;4.442;2023-07-31T11:05:41;7.32;;;4.03;;
25922;SDS011;13725;51.170;4.442;2023-07-31T11:08:15;10.98;;;4.88;;
25922;SDS011;13725;51.170;4.442;2023-07-31T11:10:46;10.18;;;5.30;;
25922;SDS011;13725;51.170;4.442;2023-07-31T11:13:13;8.57;;;4.40;;
25922;SDS011;13725;51.170;4.442;2023-07-31T11:15:39;8.50;;;4.80;;
25922;SDS011;13725;51.170;4.442;2023-07-31T11:18:05;9.13;;;4.80;;
25922;SDS011;13725;51.170;4.442;2023-07-31T11:20:33;10.30;;;4.85;;
25922;SDS011;13725;51.170;4.442;2023-07-31T11:23:05;12.95;;;4.95;;
25922;SDS011;13725;51.170;4.442;2023-07-31T11:25:33;10.25;;;4.97;;
25922;SDS011;13725;51.170;4.442;2023-07-31T11:28:06;10.93;;;5.05;;
25922;SDS011;13725;51.170;4.442;2023-07-31T11:30:36;9.93;;;4.68;;
25922;SDS011;13725;51.170;4.442;2023-07-31T11:33:03;11.10;;;5.40;;
25922;SDS011;13725;51.170;4.442;2023-07-31T11:35:34;10.45;;;5.57;;
25922;SDS011;13725;51.170;4.442;2023-07-31T11:38:01;11.30;;;4.90;;
25922;SDS011;13725;51.170;4.442;2023-07-31T11:40:27;12.30;;;5.07;;
25922;SDS011;13725;51.170;4.442;2023-07-31T11:42:58;13.10;;;5.07;;
25922;SDS011;13725;51.170;4.442;2023-07-31T11:45:29;8.93;;;5.05;;
25922;SDS011;13725;51.170;4.442;2023-07-31T11:47:55;9.70;;;5.20;;
25922;SDS011;13725;51.170;4.442;2023-07-31T11:50:22;9.88;;;4.80;;
25922;SDS011;13725;51.170;4.442;2023-07-31T11:52:52;8.45;;;4.93;;
25922;SDS011;13725;51.170;4.442;2023-07-31T11:55:23;9.35;;;5.25;;
25922;SDS011;13725;51.170;4.442;2023-07-31T11:57:49;15.02;;;5.53;;
25922;SDS011;13725;51.170;4.442;2023-07-31T12:00:16;13.02;;;4.60;;
25922;SDS011;13725;51.170;4.442;2023-07-31T12:02:42;13.90;;;4.72;;
25922;SDS011;13725;51.170;4.442;2023-07-31T12:05:12;11.63;;;5.03;;
25922;SDS011;13725;51.170;4.442;2023-07-31T12:10:26;10.60;;;5.00;;
25922;SDS011;13725;51.170;4.442;2023-07-31T12:12:59;10.45;;;5.15;;
25922;SDS011;13725;51.170;4.442;2023-07-31T12:15:42;11.48;;;4.93;;
25922;SDS011;13725;51.170;4.442;2023-07-31T12:18:12;10.25;;;4.05;;
25922;SDS011;13725;51.170;4.442;2023-07-31T12:20:43;11.07;;;4.50;;
25922;SDS011;13725;51.170;4.442;2023-07-31T12:23:20;12.40;;;4.90;;
25922;SDS011;13725;51.170;4.442;2023-07-31T12:28:35;10.90;;;4.65;;
25922;SDS011;13725;51.170;4.442;2023-07-31T12:31:15;8.00;;;4.28;;
25922;SDS011;13725;51.170;4.442;2023-07-31T12:33:46;11.52;;;4.63;;
25922;SDS011;13725;51.170;4.442;2023-07-31T12:36:14;10.35;;;4.32;;
25922;SDS011;13725;51.170;4.442;2023-07-31T12:38:41;11.38;;;5.00;;
25922;SDS011;13725;51.170;4.442;2023-07-31T12:41:08;9.73;;;4.38;;
25922;SDS011;13725;51.170;4.442;2023-07-31T12:43:37;9.18;;;4.28;;
25922;SDS011;13725;51.170;4.442;2023-07-31T12:46:04;10.50;;;4.65;;
25922;SDS011;13725;51.170;4.442;2023-07-31T12:48:30;11.77;;;4.70;;
25922;SDS011;13725;51.170;4.442;2023-07-31T12:50:57;13.05;;;4.80;;
25922;SDS011;13725;51.170;4.442;2023-07-31T12:53:22;7.88;;;4.40;;
25922;SDS011;13725;51.170;4.442;2023-07-31T12:55:48;10.40;;;4.53;;
25922;SDS011;13725;51.170;4.442;2023-07-31T12:58:15;13.18;;;4.65;;
25922;SDS011;13725;51.170;4.442;2023-07-31T13:00:41;11.18;;;4.50;;
25922;SDS011;13725;51.170;4.442;2023-07-31T13:03:07;11.48;;;4.45;;
25922;SDS011;13725;51.170;4.442;2023-07-31T13:05:33;9.13;;;4.53;;
25922;SDS011;13725;51.170;4.442;2023-07-31T13:07:59;10.63;;;4.38;;
25922;SDS011;13725;51.170;4.442;2023-07-31T13:10:25;11.27;;;4.97;;
25922;SDS011;13725;51.170;4.442;2023-07-31T13:12:53;17.50;;;5.07;;
25922;SDS011;13725;51.170;4.442;2023-07-31T13:15:20;10.57;;;4.40;;
25922;SDS011;13725;51.170;4.442;2023-07-31T13:17:46;11.55;;;4.40;;
25922;SDS011;13725;51.170;4.442;2023-07-31T13:20:12;8.30;;;3.88;;
25922;SDS011;13725;51.170;4.442;2023-07-31T13:22:38;8.20;;;4.45;;
25922;SDS011;13725;51.170;4.442;2023-07-31T13:25:05;10.02;;;4.18;;
25922;SDS011;13725;51.170;4.442;2023-07-31T13:27:31;7.35;;;3.60;;
25922;SDS011;13725;51.170;4.442;2023-07-31T13:29:57;9.57;;;4.85;;
25922;SDS011;13725;51.170;4.442;2023-07-31T13:32:23;7.07;;;4.57;;
25922;SDS011;13725;51.170;4.442;2023-07-31T13:34:49;10.40;;;5.20;;
25922;SDS011;13725;51.170;4.442;2023-07-31T13:37:15;11.07;;;4.60;;
25922;SDS011;13725;51.170;4.442;2023-07-31T13:39:41;11.45;;;4.35;;
25922;SDS011;13725;51.170;4.442;2023-07-31T13:42:08;10.77;;;4.88;;
25922;SDS011;13725;51.170;4.442;2023-07-31T13:44:40;11.93;;;4.43;;
25922;SDS011;13725;51.170;4.442;2023-07-31T13:47:07;6.22;;;3.92;;
25922;SDS011;13725;51.170;4.442;2023-07-31T13:49:34;6.80;;;3.63;;
25922;SDS011;13725;51.170;4.442;2023-07-31T13:52:01;10.82;;;3.83;;
25922;SDS011;13725;51.170;4.442;2023-07-31T13:54:28;7.03;;;3.10;;
25922;SDS011;13725;51.170;4.442;2023-07-31T13:56:53;7.00;;;3.47;;
25922;SDS011;13725;51.170;4.442;2023-07-31T13:59:20;5.75;;;2.72;;
25922;SDS011;13725;51.170;4.442;2023-07-31T14:01:45;5.55;;;2.90;;
25922;SDS011;13725;51.170;4.442;2023-07-31T14:04:11;6.05;;;3.05;;
25922;SDS011;13725;51.170;4.442;2023-07-31T14:06:37;9.55;;;2.63;;
25922;SDS011;13725;51.170;4.442;2023-07-31T14:09:04;8.00;;;2.78;;
25922;SDS011;13725;51.170;4.442;2023-07-31T14:11:33;6.28;;;2.20;;
25922;SDS011;13725;51.170;4.442;2023-07-31T14:13:59;3.83;;;2.20;;
25922;SDS011;13725;51.170;4.442;2023-07-31T14:16:26;3.83;;;2.08;;
25922;SDS011;13725;51.170;4.442;2023-07-31T14:18:53;4.97;;;2.40;;
25922;SDS011;13725;51.170;4.442;2023-07-31T14:21:19;4.55;;;2.10;;
25922;SDS011;13725;51.170;4.442;2023-07-31T14:23:45;6.07;;;2.17;;
25922;SDS011;13725;51.170;4.442;2023-07-31T14:26:11;4.32;;;1.95;;
25922;SDS011;13725;51.170;4.442;2023-07-31T14:28:37;3.58;;;1.90;;
25922;SDS011;13725;51.170;4.442;2023-07-31T14:31:04;8.07;;;2.33;;
25922;SDS011;13725;51.170;4.442;2023-07-31T14:33:30;3.83;;;1.80;;
25922;SDS011;13725;51.170;4.442;2023-07-31T14:35:56;6.07;;;2.15;;
25922;SDS011;13725;51.170;4.442;2023-07-31T14:38:21;4.00;;;2.80;;
25922;SDS011;13725;51.170;4.442;2023-07-31T14:40:47;5.57;;;2.35;;
25922;SDS011;13725;51.170;4.442;2023-07-31T14:43:13;6.32;;;2.75;;
25922;SDS011;13725;51.170;4.442;2023-07-31T14:45:39;6.75;;;2.50;;
25922;SDS011;13725;51.170;4.442;2023-07-31T14:48:04;5.38;;;2.47;;
25922;SDS011;13725;51.170;4.442;2023-07-31T14:50:31;6.30;;;2.83;;
25922;SDS011;13725;51.170;4.442;2023-07-31T14:52:57;9.15;;;3.20;;
25922;SDS011;13725;51.170;4.442;2023-07-31T14:55:23;6.07;;;2.63;;
25922;SDS011;13725;51.170;4.442;2023-07-31T14:57:48;9.13;;;2.72;;